ASD28 UIII-UNNT
Flight info
| Callsign | ASD28 |
|---|---|
| Flight time | 2h 3m |
| Altitude | 34000 |
| Route | UIII SID TULEK B231 TOKOT R22 OBULA STAR UNNT |
| Aircraft | A320/M-V/N |
Departure
| Time | 2026-05-09 10:37 |
|---|---|
| Airport | Irkutsk International Airport (UIII) |
Arrival
| Time | 2026-05-09 12:40 |
|---|---|
| Airport | Novosibirsk Tolmachevo Airport (UNNT) |
| Time | Latitude | Longitude | Altitude | Speed | Heading |
|---|---|---|---|---|---|
| 2026-05-09 10:04 | 52.27222 | 104.35528 | 1584 ft | 0 kts | 86° |
| 2026-05-09 10:22 | 52.27223 | 104.35542 | 1584 ft | 8 kts | 86° |
| 2026-05-09 10:22 | 52.27223 | 104.35546 | 1584 ft | 0 kts | 86° |
| 2026-05-09 10:22 | 52.27223 | 104.35529 | 1584 ft | 4 kts | 86° |
| 2026-05-09 10:22 | 52.27222 | 104.35527 | 1584 ft | 0 kts | 86° |
| 2026-05-09 10:25 | 52.27219 | 104.35568 | 1584 ft | 7 kts | 118° |
| 2026-05-09 10:25 | 52.27152 | 104.35635 | 1584 ft | 7 kts | 113° |
| 2026-05-09 10:25 | 52.27159 | 104.35782 | 1584 ft | 23 kts | 75° |
| 2026-05-09 10:26 | 52.27182 | 104.36095 | 1584 ft | 37 kts | 86° |
| 2026-05-09 10:26 | 52.27135 | 104.36487 | 1584 ft | 37 kts | 110° |
| 2026-05-09 10:26 | 52.27053 | 104.36843 | 1588 ft | 30 kts | 109° |
| 2026-05-09 10:26 | 52.26999 | 104.37087 | 1593 ft | 28 kts | 106° |
| 2026-05-09 10:27 | 52.26986 | 104.37333 | 1598 ft | 25 kts | 108° |
| 2026-05-09 10:27 | 52.26964 | 104.37418 | 1605 ft | 0 kts | 114° |
| 2026-05-09 10:27 | 52.26948 | 104.37475 | 1607 ft | 27 kts | 113° |
| 2026-05-09 10:27 | 52.26850 | 104.37850 | 1616 ft | 32 kts | 113° |
| 2026-05-09 10:28 | 52.26793 | 104.38061 | 1616 ft | 19 kts | 115° |
| 2026-05-09 10:28 | 52.26732 | 104.38290 | 1621 ft | 20 kts | 113° |
| 2026-05-09 10:28 | 52.26686 | 104.38461 | 1625 ft | 12 kts | 114° |
| 2026-05-09 10:28 | 52.26635 | 104.38651 | 1633 ft | 20 kts | 114° |
| 2026-05-09 10:29 | 52.26561 | 104.38928 | 1634 ft | 33 kts | 112° |
| 2026-05-09 10:29 | 52.26469 | 104.39284 | 1642 ft | 37 kts | 113° |
| 2026-05-09 10:29 | 52.26385 | 104.39601 | 1649 ft | 31 kts | 113° |
| 2026-05-09 10:29 | 52.26306 | 104.39899 | 1668 ft | 23 kts | 114° |
| 2026-05-09 10:30 | 52.26223 | 104.40213 | 1669 ft | 4 kts | 112° |
| 2026-05-09 10:30 | 52.26154 | 104.40473 | 1669 ft | 29 kts | 112° |
| 2026-05-09 10:30 | 52.26067 | 104.40800 | 1676 ft | 27 kts | 114° |
| 2026-05-09 10:30 | 52.26007 | 104.41028 | 1684 ft | 23 kts | 112° |
| 2026-05-09 10:31 | 52.25999 | 104.41128 | 1683 ft | 1 kts | 64° |
| 2026-05-09 10:31 | 52.26045 | 104.41197 | 1688 ft | 12 kts | 26° |
| 2026-05-09 10:31 | 52.26049 | 104.41200 | 1692 ft | 0 kts | 23° |
| 2026-05-09 10:32 | 52.26108 | 104.41240 | 1690 ft | 0 kts | 23° |
| 2026-05-09 10:35 | 52.26133 | 104.41257 | 1685 ft | 23 kts | 23° |
| 2026-05-09 10:35 | 52.26236 | 104.41246 | 1687 ft | 0 kts | 295° |
| 2026-05-09 10:36 | 52.26237 | 104.41245 | 1686 ft | 4 kts | 296° |
| 2026-05-09 10:36 | 52.26359 | 104.40788 | 1673 ft | 82 kts | 294° |
| 2026-05-09 10:36 | 52.26685 | 104.39564 | 1644 ft | 151 kts | 293° |
| 2026-05-09 10:36 | 52.27174 | 104.37813 | 2139 ft | 174 kts | 295° |
| 2026-05-09 10:37 | 52.27658 | 104.35943 | 2949 ft | 188 kts | 292° |
| 2026-05-09 10:37 | 52.28145 | 104.33868 | 3866 ft | 197 kts | 291° |
| 2026-05-09 10:37 | 52.28603 | 104.31805 | 5134 ft | 187 kts | 292° |
| 2026-05-09 10:37 | 52.29048 | 104.29807 | 6152 ft | 185 kts | 292° |
| 2026-05-09 10:38 | 52.29487 | 104.27862 | 7073 ft | 184 kts | 292° |
| 2026-05-09 10:38 | 52.29953 | 104.25835 | 7538 ft | 208 kts | 292° |
| 2026-05-09 10:38 | 52.30533 | 104.23361 | 7379 ft | 264 kts | 292° |
| 2026-05-09 10:38 | 52.31256 | 104.20169 | 7003 ft | 328 kts | 290° |
| 2026-05-09 10:39 | 52.31927 | 104.16349 | 7098 ft | 369 kts | 283° |
| 2026-05-09 10:39 | 52.32145 | 104.12101 | 8013 ft | 382 kts | 270° |
| 2026-05-09 10:39 | 52.31775 | 104.07774 | 9307 ft | 385 kts | 261° |
| 2026-05-09 10:39 | 52.31238 | 104.03459 | 10461 ft | 388 kts | 261° |
| 2026-05-09 10:40 | 52.30701 | 103.99137 | 11595 ft | 389 kts | 261° |
| 2026-05-09 10:40 | 52.30189 | 103.94795 | 12708 ft | 391 kts | 263° |
| 2026-05-09 10:40 | 52.29752 | 103.90399 | 13754 ft | 393 kts | 265° |
| 2026-05-09 10:40 | 52.29543 | 103.85908 | 14554 ft | 398 kts | 271° |
| 2026-05-09 10:41 | 52.29690 | 103.81395 | 15404 ft | 399 kts | 279° |
| 2026-05-09 10:41 | 52.30259 | 103.76957 | 16306 ft | 399 kts | 289° |
| 2026-05-09 10:41 | 52.31273 | 103.72716 | 17161 ft | 401 kts | 298° |
| 2026-05-09 10:41 | 52.32720 | 103.68825 | 18046 ft | 401 kts | 308° |
| 2026-05-09 10:42 | 52.34557 | 103.65463 | 18859 ft | 401 kts | 318° |
| 2026-05-09 10:42 | 52.36776 | 103.62669 | 19503 ft | 406 kts | 328° |
| 2026-05-09 10:42 | 52.39320 | 103.60607 | 20121 ft | 412 kts | 338° |
| 2026-05-09 10:42 | 52.41929 | 103.58636 | 20843 ft | 413 kts | 331° |
| 2026-05-09 10:43 | 52.44305 | 103.55960 | 21618 ft | 415 kts | 321° |
| 2026-05-09 10:43 | 52.46380 | 103.52612 | 21978 ft | 427 kts | 312° |
| 2026-05-09 10:43 | 52.47981 | 103.48328 | 21425 ft | 459 kts | 296° |
| 2026-05-09 10:43 | 52.49132 | 103.43400 | 20908 ft | 440 kts | 291° |
| 2026-05-09 10:44 | 52.50121 | 103.38820 | 20660 ft | 413 kts | 292° |
| 2026-05-09 10:44 | 52.51091 | 103.34428 | 20383 ft | 409 kts | 292° |
| 2026-05-09 10:44 | 52.52076 | 103.30039 | 20177 ft | 408 kts | 292° |
| 2026-05-09 10:44 | 52.53016 | 103.25751 | 20424 ft | 405 kts | 292° |
| 2026-05-09 10:45 | 52.53974 | 103.21366 | 20680 ft | 411 kts | 292° |
| 2026-05-09 10:46 | 52.56827 | 103.03052 | 22216 ft | 428 kts | 273° |
| 2026-05-09 10:46 | 52.56804 | 102.98113 | 22562 ft | 435 kts | 272° |
| 2026-05-09 10:46 | 52.56750 | 102.93142 | 22905 ft | 434 kts | 272° |
| 2026-05-09 10:46 | 52.56770 | 102.88185 | 23158 ft | 435 kts | 276° |
| 2026-05-09 10:47 | 52.57009 | 102.83237 | 23443 ft | 434 kts | 277° |
| 2026-05-09 10:47 | 52.57112 | 102.78337 | 23876 ft | 435 kts | 272° |
| 2026-05-09 10:47 | 52.57042 | 102.73338 | 24325 ft | 440 kts | 271° |
| 2026-05-09 10:47 | 52.57038 | 102.68268 | 24578 ft | 446 kts | 274° |
| 2026-05-09 10:48 | 52.57193 | 102.63187 | 24858 ft | 445 kts | 276° |
| 2026-05-09 10:48 | 52.57491 | 102.58127 | 25119 ft | 442 kts | 285° |
| 2026-05-09 10:48 | 52.58369 | 102.53294 | 25585 ft | 441 kts | 292° |
| 2026-05-09 10:48 | 52.59430 | 102.48543 | 26127 ft | 443 kts | 293° |
| 2026-05-09 10:49 | 52.60536 | 102.43813 | 26723 ft | 443 kts | 294° |
| 2026-05-09 10:49 | 52.61648 | 102.39097 | 27450 ft | 441 kts | 294° |
| 2026-05-09 10:49 | 52.62752 | 102.34397 | 28179 ft | 439 kts | 294° |
| 2026-05-09 10:49 | 52.63828 | 102.29771 | 28899 ft | 437 kts | 294° |
| 2026-05-09 10:50 | 52.64915 | 102.25044 | 29601 ft | 435 kts | 294° |
| 2026-05-09 10:50 | 52.65960 | 102.20445 | 30244 ft | 434 kts | 293° |
| 2026-05-09 10:50 | 52.67006 | 102.15791 | 30823 ft | 432 kts | 293° |
| 2026-05-09 10:50 | 52.68039 | 102.11154 | 31391 ft | 431 kts | 293° |
| 2026-05-09 10:51 | 52.69059 | 102.06528 | 31955 ft | 429 kts | 292° |
| 2026-05-09 10:51 | 52.70072 | 102.01896 | 32511 ft | 428 kts | 292° |
| 2026-05-09 10:51 | 52.71075 | 101.97276 | 33074 ft | 427 kts | 292° |
| 2026-05-09 10:51 | 52.72070 | 101.92661 | 33545 ft | 424 kts | 292° |
| 2026-05-09 10:52 | 52.73051 | 101.88073 | 33748 ft | 424 kts | 292° |
| 2026-05-09 10:52 | 52.75003 | 101.78866 | 33859 ft | 425 kts | 292° |
| 2026-05-09 10:53 | 52.76926 | 101.69706 | 33881 ft | 422 kts | 292° |
| 2026-05-09 10:53 | 52.78842 | 101.60512 | 33872 ft | 422 kts | 292° |
| 2026-05-09 10:54 | 52.80743 | 101.51326 | 33879 ft | 422 kts | 291° |
| 2026-05-09 10:54 | 52.82613 | 101.42133 | 33887 ft | 422 kts | 290° |
| 2026-05-09 10:55 | 52.84441 | 101.32989 | 33880 ft | 421 kts | 291° |
| 2026-05-09 10:55 | 52.86281 | 101.23768 | 33881 ft | 421 kts | 291° |
| 2026-05-09 10:56 | 52.88112 | 101.14576 | 33889 ft | 420 kts | 291° |
| 2026-05-09 10:56 | 52.89945 | 101.05391 | 33892 ft | 420 kts | 291° |
| 2026-05-09 10:57 | 52.91779 | 100.96191 | 33897 ft | 420 kts | 291° |
| 2026-05-09 10:57 | 52.93311 | 100.88502 | 33897 ft | 419 kts | 291° |
| 2026-05-09 10:58 | 52.95124 | 100.79380 | 33892 ft | 419 kts | 291° |
| 2026-05-09 10:58 | 52.96939 | 100.70204 | 33891 ft | 419 kts | 291° |
| 2026-05-09 10:59 | 52.98755 | 100.61021 | 33886 ft | 419 kts | 291° |
| 2026-05-09 10:59 | 53.00559 | 100.51842 | 33888 ft | 418 kts | 291° |
| 2026-05-09 11:00 | 53.02364 | 100.42633 | 33891 ft | 419 kts | 291° |
| 2026-05-09 11:00 | 53.04162 | 100.33422 | 33888 ft | 419 kts | 290° |
| 2026-05-09 11:01 | 53.05951 | 100.24214 | 33893 ft | 418 kts | 290° |
| 2026-05-09 11:01 | 53.07732 | 100.14994 | 33900 ft | 419 kts | 290° |
| 2026-05-09 11:02 | 53.09510 | 100.05764 | 33902 ft | 419 kts | 290° |
| 2026-05-09 11:02 | 53.11279 | 99.96513 | 33897 ft | 418 kts | 290° |
| 2026-05-09 11:03 | 53.13032 | 99.87306 | 33900 ft | 417 kts | 290° |
| 2026-05-09 11:03 | 53.14769 | 99.78148 | 33888 ft | 417 kts | 290° |
| 2026-05-09 11:04 | 53.16508 | 99.68932 | 33906 ft | 416 kts | 290° |
| 2026-05-09 11:04 | 53.18245 | 99.59673 | 33897 ft | 415 kts | 290° |
| 2026-05-09 11:05 | 53.19950 | 99.50533 | 33902 ft | 415 kts | 289° |
| 2026-05-09 11:05 | 53.21659 | 99.41335 | 33905 ft | 415 kts | 289° |
| 2026-05-09 11:06 | 53.23357 | 99.32149 | 33898 ft | 414 kts | 289° |
| 2026-05-09 11:06 | 53.25045 | 99.22970 | 33909 ft | 413 kts | 289° |
| 2026-05-09 11:07 | 53.26720 | 99.13813 | 33903 ft | 411 kts | 288° |
| 2026-05-09 11:07 | 53.28378 | 99.04673 | 33914 ft | 411 kts | 289° |
| 2026-05-09 11:08 | 53.30048 | 98.95522 | 33907 ft | 411 kts | 289° |
| 2026-05-09 11:08 | 53.31694 | 98.86388 | 33901 ft | 409 kts | 289° |
| 2026-05-09 11:09 | 53.33324 | 98.77282 | 33899 ft | 408 kts | 289° |
| 2026-05-09 11:09 | 53.34975 | 98.68151 | 33903 ft | 410 kts | 289° |
| 2026-05-09 11:10 | 53.36588 | 98.59079 | 33892 ft | 408 kts | 289° |
| 2026-05-09 11:10 | 53.38191 | 98.49983 | 33895 ft | 407 kts | 289° |
| 2026-05-09 11:11 | 53.39790 | 98.40860 | 33894 ft | 409 kts | 289° |
| 2026-05-09 11:11 | 53.41389 | 98.31716 | 33894 ft | 407 kts | 289° |
| 2026-05-09 11:12 | 53.42972 | 98.22612 | 33898 ft | 407 kts | 289° |
| 2026-05-09 11:12 | 53.44554 | 98.13479 | 33900 ft | 408 kts | 288° |
| 2026-05-09 11:13 | 53.46120 | 98.04382 | 33901 ft | 407 kts | 288° |
| 2026-05-09 11:13 | 53.47684 | 97.95274 | 33897 ft | 405 kts | 288° |
| 2026-05-09 11:14 | 53.49229 | 97.86200 | 33913 ft | 407 kts | 288° |
| 2026-05-09 11:14 | 53.50792 | 97.76998 | 33910 ft | 406 kts | 288° |
| 2026-05-09 11:15 | 53.52331 | 97.67877 | 33909 ft | 405 kts | 288° |
| 2026-05-09 11:15 | 53.53863 | 97.58752 | 33913 ft | 406 kts | 288° |
| 2026-05-09 11:16 | 53.55390 | 97.49612 | 33924 ft | 405 kts | 288° |
| 2026-05-09 11:16 | 53.56905 | 97.40495 | 33928 ft | 404 kts | 288° |
| 2026-05-09 11:17 | 53.58408 | 97.31392 | 33926 ft | 403 kts | 288° |
| 2026-05-09 11:17 | 53.59906 | 97.22271 | 33937 ft | 404 kts | 287° |
| 2026-05-09 11:18 | 53.61386 | 97.13228 | 33923 ft | 402 kts | 287° |
| 2026-05-09 11:18 | 53.62865 | 97.04136 | 33942 ft | 403 kts | 287° |
| 2026-05-09 11:19 | 53.64341 | 96.95014 | 33944 ft | 403 kts | 287° |
| 2026-05-09 11:19 | 53.65799 | 96.85949 | 33937 ft | 400 kts | 287° |
| 2026-05-09 11:20 | 53.67254 | 96.76860 | 33938 ft | 400 kts | 288° |
| 2026-05-09 11:20 | 53.68721 | 96.67810 | 33933 ft | 400 kts | 287° |
| 2026-05-09 11:21 | 53.70159 | 96.58715 | 33927 ft | 399 kts | 287° |
| 2026-05-09 11:21 | 53.71569 | 96.49735 | 33926 ft | 398 kts | 287° |
| 2026-05-09 11:22 | 53.72982 | 96.40678 | 33932 ft | 399 kts | 284° |
| 2026-05-09 11:22 | 53.74356 | 96.31627 | 33940 ft | 397 kts | 285° |
| 2026-05-09 11:23 | 53.75762 | 96.22593 | 33926 ft | 398 kts | 287° |
| 2026-05-09 11:23 | 53.77158 | 96.13547 | 33924 ft | 397 kts | 287° |
| 2026-05-09 11:24 | 53.78542 | 96.04537 | 33913 ft | 396 kts | 286° |
| 2026-05-09 11:24 | 53.79915 | 95.95527 | 33902 ft | 396 kts | 285° |
| 2026-05-09 11:25 | 53.81285 | 95.86485 | 33910 ft | 397 kts | 286° |
| 2026-05-09 11:25 | 53.82649 | 95.77433 | 33913 ft | 396 kts | 286° |
| 2026-05-09 11:26 | 53.83991 | 95.68484 | 33904 ft | 395 kts | 286° |
| 2026-05-09 11:26 | 53.85343 | 95.59427 | 33903 ft | 397 kts | 285° |
| 2026-05-09 11:27 | 53.86691 | 95.50335 | 33896 ft | 397 kts | 285° |
| 2026-05-09 11:27 | 53.88028 | 95.41261 | 33895 ft | 396 kts | 285° |
| 2026-05-09 11:28 | 53.89355 | 95.32209 | 33892 ft | 398 kts | 285° |
| 2026-05-09 11:28 | 53.90686 | 95.23084 | 33861 ft | 401 kts | 284° |
| 2026-05-09 11:29 | 53.92074 | 95.13687 | 33893 ft | 421 kts | 283° |
| 2026-05-09 11:29 | 53.93469 | 95.03999 | 33885 ft | 420 kts | 283° |
| 2026-05-09 11:30 | 53.94831 | 94.94422 | 33896 ft | 415 kts | 283° |
| 2026-05-09 11:30 | 53.96191 | 94.84840 | 33880 ft | 418 kts | 283° |
| 2026-05-09 11:31 | 53.97547 | 94.75222 | 33880 ft | 419 kts | 283° |
| 2026-05-09 11:31 | 53.98892 | 94.65608 | 33877 ft | 418 kts | 283° |
| 2026-05-09 11:32 | 54.00230 | 94.55991 | 33896 ft | 420 kts | 282° |
| 2026-05-09 11:32 | 54.01562 | 94.46364 | 33877 ft | 420 kts | 282° |
| 2026-05-09 11:33 | 54.02892 | 94.36692 | 33877 ft | 420 kts | 282° |
| 2026-05-09 11:33 | 54.04876 | 94.22144 | 33873 ft | 421 kts | 282° |
| 2026-05-09 11:34 | 54.06190 | 94.12425 | 33873 ft | 422 kts | 282° |
| 2026-05-09 11:34 | 54.07500 | 94.02666 | 33875 ft | 422 kts | 282° |
| 2026-05-09 11:35 | 54.08802 | 93.92919 | 33874 ft | 422 kts | 282° |
| 2026-05-09 11:35 | 54.10089 | 93.83212 | 33879 ft | 423 kts | 282° |
| 2026-05-09 11:36 | 54.11381 | 93.73407 | 33871 ft | 423 kts | 282° |
| 2026-05-09 11:36 | 54.12661 | 93.63617 | 33871 ft | 423 kts | 281° |
| 2026-05-09 11:37 | 54.13938 | 93.53784 | 33868 ft | 425 kts | 281° |
| 2026-05-09 11:37 | 54.15208 | 93.43944 | 33869 ft | 425 kts | 281° |
| 2026-05-09 11:38 | 54.16459 | 93.34179 | 33871 ft | 424 kts | 281° |
| 2026-05-09 11:38 | 54.17718 | 93.24290 | 33877 ft | 425 kts | 281° |
| 2026-05-09 11:39 | 54.18960 | 93.14459 | 33872 ft | 426 kts | 281° |
| 2026-05-09 11:40 | 54.20818 | 92.99631 | 33871 ft | 426 kts | 281° |
| 2026-05-09 11:40 | 54.22049 | 92.89717 | 33871 ft | 427 kts | 281° |
| 2026-05-09 11:41 | 54.23274 | 92.79775 | 33871 ft | 427 kts | 281° |
| 2026-05-09 11:41 | 54.24486 | 92.69850 | 33871 ft | 426 kts | 281° |
| 2026-05-09 11:42 | 54.25694 | 92.59911 | 33869 ft | 427 kts | 281° |
| 2026-05-09 11:42 | 54.26693 | 92.51634 | 33865 ft | 428 kts | 280° |
| 2026-05-09 11:43 | 54.27888 | 92.41664 | 33865 ft | 427 kts | 280° |
| 2026-05-09 11:43 | 54.29070 | 92.31726 | 33863 ft | 427 kts | 280° |
| 2026-05-09 11:44 | 54.30246 | 92.21755 | 33864 ft | 428 kts | 280° |
| 2026-05-09 11:44 | 54.31416 | 92.11752 | 33857 ft | 427 kts | 280° |
| 2026-05-09 11:45 | 54.32576 | 92.01774 | 33862 ft | 427 kts | 280° |
| 2026-05-09 11:45 | 54.33730 | 91.91776 | 33858 ft | 427 kts | 280° |
| 2026-05-09 11:46 | 54.34867 | 91.81844 | 33859 ft | 428 kts | 280° |
| 2026-05-09 11:46 | 54.36003 | 91.71840 | 33858 ft | 427 kts | 280° |
| 2026-05-09 11:47 | 54.37127 | 91.61864 | 33850 ft | 427 kts | 280° |
| 2026-05-09 11:47 | 54.38251 | 91.51810 | 33855 ft | 427 kts | 279° |
| 2026-05-09 11:48 | 54.39355 | 91.41854 | 33846 ft | 427 kts | 279° |
| 2026-05-09 11:48 | 54.40454 | 91.31863 | 33848 ft | 426 kts | 279° |
| 2026-05-09 11:49 | 54.41546 | 91.21863 | 33844 ft | 426 kts | 279° |
| 2026-05-09 11:49 | 54.42631 | 91.11848 | 33840 ft | 426 kts | 279° |
| 2026-05-09 11:50 | 54.43707 | 91.01820 | 33837 ft | 425 kts | 279° |
| 2026-05-09 11:50 | 54.44773 | 90.91810 | 33837 ft | 425 kts | 279° |
| 2026-05-09 11:51 | 54.45823 | 90.81868 | 33832 ft | 425 kts | 279° |
| 2026-05-09 11:51 | 54.46869 | 90.71885 | 33829 ft | 425 kts | 279° |
| 2026-05-09 11:52 | 54.47910 | 90.61872 | 33828 ft | 424 kts | 279° |
| 2026-05-09 11:52 | 54.48936 | 90.51918 | 33822 ft | 424 kts | 279° |
| 2026-05-09 11:53 | 54.49959 | 90.41890 | 33818 ft | 424 kts | 279° |
| 2026-05-09 11:53 | 54.50970 | 90.31899 | 33817 ft | 424 kts | 279° |
| 2026-05-09 11:54 | 54.51968 | 90.21961 | 33813 ft | 423 kts | 279° |
| 2026-05-09 11:54 | 54.52964 | 90.11956 | 33807 ft | 423 kts | 279° |
| 2026-05-09 11:55 | 54.53943 | 90.02026 | 33806 ft | 423 kts | 279° |
| 2026-05-09 11:56 | 54.56843 | 89.72105 | 33798 ft | 420 kts | 278° |
| 2026-05-09 11:57 | 54.57788 | 89.62178 | 33801 ft | 419 kts | 278° |
| 2026-05-09 11:57 | 54.58726 | 89.52233 | 33800 ft | 420 kts | 278° |
| 2026-05-09 11:58 | 54.59653 | 89.42305 | 33804 ft | 418 kts | 278° |
| 2026-05-09 11:58 | 54.60563 | 89.32482 | 33801 ft | 417 kts | 278° |
| 2026-05-09 11:59 | 54.61471 | 89.22586 | 33806 ft | 418 kts | 278° |
| 2026-05-09 11:59 | 54.62371 | 89.12679 | 33806 ft | 417 kts | 278° |
| 2026-05-09 12:00 | 54.63261 | 89.02793 | 33808 ft | 416 kts | 278° |
| 2026-05-09 12:00 | 54.64140 | 88.92925 | 33813 ft | 416 kts | 278° |
| 2026-05-09 12:01 | 54.65011 | 88.83047 | 33818 ft | 416 kts | 278° |
| 2026-05-09 12:01 | 54.65875 | 88.73190 | 33822 ft | 414 kts | 278° |
| 2026-05-09 12:02 | 54.66727 | 88.63368 | 33819 ft | 414 kts | 278° |
| 2026-05-09 12:02 | 54.67571 | 88.53509 | 33831 ft | 415 kts | 278° |
| 2026-05-09 12:03 | 54.68404 | 88.43711 | 33830 ft | 413 kts | 278° |
| 2026-05-09 12:03 | 54.69228 | 88.33900 | 33827 ft | 412 kts | 278° |
| 2026-05-09 12:04 | 54.70045 | 88.24087 | 33824 ft | 412 kts | 278° |
| 2026-05-09 12:04 | 54.70853 | 88.14278 | 33823 ft | 412 kts | 277° |
| 2026-05-09 12:05 | 54.71657 | 88.04437 | 33817 ft | 413 kts | 277° |
| 2026-05-09 12:05 | 54.72451 | 87.94615 | 33806 ft | 411 kts | 277° |
| 2026-05-09 12:06 | 54.73236 | 87.84789 | 33813 ft | 412 kts | 277° |
| 2026-05-09 12:06 | 54.74012 | 87.74977 | 33806 ft | 411 kts | 277° |
| 2026-05-09 12:07 | 54.74779 | 87.65172 | 33800 ft | 410 kts | 277° |
| 2026-05-09 12:07 | 54.75538 | 87.55365 | 33799 ft | 411 kts | 277° |
| 2026-05-09 12:08 | 54.76291 | 87.45554 | 33767 ft | 411 kts | 277° |
| 2026-05-09 12:08 | 54.76662 | 87.40709 | 33387 ft | 411 kts | 277° |
| 2026-05-09 12:08 | 54.77037 | 87.35793 | 32443 ft | 412 kts | 277° |
| 2026-05-09 12:08 | 54.77411 | 87.30841 | 31161 ft | 419 kts | 277° |
| 2026-05-09 12:09 | 54.77791 | 87.25791 | 29909 ft | 426 kts | 276° |
| 2026-05-09 12:09 | 54.78173 | 87.20677 | 28475 ft | 431 kts | 276° |
| 2026-05-09 12:09 | 54.78554 | 87.15515 | 27120 ft | 434 kts | 276° |
| 2026-05-09 12:10 | 54.79691 | 86.99877 | 24407 ft | 429 kts | 276° |
| 2026-05-09 12:10 | 54.80059 | 86.94766 | 24086 ft | 427 kts | 276° |
| 2026-05-09 12:10 | 54.80422 | 86.89676 | 23925 ft | 424 kts | 276° |
| 2026-05-09 12:11 | 54.80782 | 86.84589 | 23848 ft | 425 kts | 276° |
| 2026-05-09 12:11 | 54.81141 | 86.79497 | 23817 ft | 425 kts | 276° |
| 2026-05-09 12:11 | 54.81498 | 86.74401 | 23799 ft | 426 kts | 276° |
| 2026-05-09 12:11 | 54.81849 | 86.69362 | 23797 ft | 426 kts | 276° |
| 2026-05-09 12:12 | 54.82203 | 86.64259 | 23794 ft | 425 kts | 276° |
| 2026-05-09 12:12 | 54.82553 | 86.59172 | 23792 ft | 425 kts | 276° |
| 2026-05-09 12:12 | 54.82902 | 86.54063 | 23790 ft | 425 kts | 276° |
| 2026-05-09 12:12 | 54.83250 | 86.48959 | 23786 ft | 426 kts | 276° |
| 2026-05-09 12:13 | 54.83595 | 86.43861 | 23781 ft | 426 kts | 275° |
| 2026-05-09 12:13 | 54.83938 | 86.38765 | 23786 ft | 425 kts | 275° |
| 2026-05-09 12:13 | 54.84279 | 86.33664 | 23780 ft | 425 kts | 275° |
| 2026-05-09 12:13 | 54.84618 | 86.28567 | 23775 ft | 425 kts | 275° |
| 2026-05-09 12:14 | 54.84954 | 86.23478 | 23773 ft | 426 kts | 275° |
| 2026-05-09 12:14 | 54.85289 | 86.18365 | 23775 ft | 426 kts | 275° |
| 2026-05-09 12:14 | 54.85622 | 86.13257 | 23775 ft | 426 kts | 275° |
| 2026-05-09 12:14 | 54.85952 | 86.08153 | 23674 ft | 425 kts | 275° |
| 2026-05-09 12:15 | 54.86279 | 86.03073 | 23045 ft | 421 kts | 275° |
| 2026-05-09 12:15 | 54.86600 | 85.98055 | 21999 ft | 416 kts | 275° |
| 2026-05-09 12:15 | 54.86915 | 85.93096 | 20986 ft | 410 kts | 275° |
| 2026-05-09 12:15 | 54.87224 | 85.88170 | 20418 ft | 408 kts | 275° |
| 2026-05-09 12:16 | 54.87529 | 85.83304 | 20063 ft | 402 kts | 275° |
| 2026-05-09 12:16 | 54.87827 | 85.78503 | 19894 ft | 399 kts | 275° |
| 2026-05-09 12:16 | 54.88124 | 85.73714 | 19824 ft | 399 kts | 275° |
| 2026-05-09 12:16 | 54.88414 | 85.68978 | 19785 ft | 399 kts | 275° |
| 2026-05-09 12:17 | 54.88709 | 85.64132 | 19769 ft | 399 kts | 275° |
| 2026-05-09 12:17 | 54.89000 | 85.59334 | 19761 ft | 400 kts | 275° |
| 2026-05-09 12:17 | 54.89286 | 85.54577 | 19753 ft | 400 kts | 275° |
| 2026-05-09 12:17 | 54.89573 | 85.49776 | 19754 ft | 399 kts | 275° |
| 2026-05-09 12:18 | 54.89858 | 85.44977 | 19751 ft | 399 kts | 275° |
| 2026-05-09 12:18 | 54.90142 | 85.40175 | 19758 ft | 400 kts | 275° |
| 2026-05-09 12:18 | 54.90424 | 85.35372 | 19630 ft | 398 kts | 274° |
| 2026-05-09 12:18 | 54.90701 | 85.30612 | 18946 ft | 393 kts | 274° |
| 2026-05-09 12:19 | 54.90973 | 85.25907 | 18007 ft | 389 kts | 274° |
| 2026-05-09 12:19 | 54.91240 | 85.21260 | 16994 ft | 384 kts | 274° |
| 2026-05-09 12:19 | 54.91502 | 85.16669 | 16009 ft | 378 kts | 274° |
| 2026-05-09 12:19 | 54.91760 | 85.12140 | 15054 ft | 374 kts | 274° |
| 2026-05-09 12:20 | 54.92011 | 85.07672 | 14131 ft | 369 kts | 274° |
| 2026-05-09 12:20 | 54.92259 | 85.03260 | 13215 ft | 365 kts | 274° |
| 2026-05-09 12:20 | 54.92504 | 84.98886 | 12215 ft | 361 kts | 274° |
| 2026-05-09 12:20 | 54.92744 | 84.94615 | 11275 ft | 357 kts | 274° |
| 2026-05-09 12:21 | 54.92981 | 84.90342 | 10328 ft | 354 kts | 273° |
| 2026-05-09 12:21 | 54.93214 | 84.86091 | 9400 ft | 351 kts | 273° |
| 2026-05-09 12:21 | 54.93444 | 84.81911 | 8840 ft | 339 kts | 273° |
| 2026-05-09 12:21 | 54.93660 | 84.77944 | 8506 ft | 321 kts | 272° |
| 2026-05-09 12:22 | 54.93865 | 84.74173 | 8214 ft | 305 kts | 272° |
| 2026-05-09 12:22 | 54.94058 | 84.70580 | 7950 ft | 291 kts | 272° |
| 2026-05-09 12:22 | 54.94239 | 84.67153 | 7702 ft | 279 kts | 272° |
| 2026-05-09 12:22 | 54.94412 | 84.63837 | 7341 ft | 273 kts | 272° |
| 2026-05-09 12:23 | 54.94584 | 84.60478 | 6989 ft | 280 kts | 272° |
| 2026-05-09 12:23 | 54.94754 | 84.57162 | 6848 ft | 271 kts | 272° |
| 2026-05-09 12:23 | 54.94922 | 84.53896 | 6770 ft | 272 kts | 271° |
| 2026-05-09 12:23 | 54.95088 | 84.50613 | 6744 ft | 272 kts | 271° |
| 2026-05-09 12:24 | 54.95250 | 84.47339 | 6732 ft | 271 kts | 271° |
| 2026-05-09 12:24 | 54.95409 | 84.44075 | 6721 ft | 272 kts | 271° |
| 2026-05-09 12:24 | 54.95572 | 84.40804 | 6721 ft | 272 kts | 272° |
| 2026-05-09 12:24 | 54.95735 | 84.37502 | 6719 ft | 273 kts | 272° |
| 2026-05-09 12:25 | 54.95897 | 84.34222 | 6716 ft | 271 kts | 272° |
| 2026-05-09 12:25 | 54.96058 | 84.30998 | 6708 ft | 271 kts | 271° |
| 2026-05-09 12:25 | 54.96218 | 84.27730 | 6711 ft | 272 kts | 272° |
| 2026-05-09 12:25 | 54.96379 | 84.24443 | 6715 ft | 271 kts | 271° |
| 2026-05-09 12:26 | 54.96537 | 84.21189 | 6716 ft | 271 kts | 272° |
| 2026-05-09 12:26 | 54.96696 | 84.17925 | 6719 ft | 270 kts | 271° |
| 2026-05-09 12:26 | 54.96855 | 84.14647 | 6720 ft | 271 kts | 272° |
| 2026-05-09 12:26 | 54.97010 | 84.11380 | 6715 ft | 270 kts | 271° |
| 2026-05-09 12:27 | 54.97166 | 84.08141 | 6487 ft | 269 kts | 271° |
| 2026-05-09 12:27 | 54.97322 | 84.04885 | 5958 ft | 270 kts | 271° |
| 2026-05-09 12:27 | 54.97475 | 84.01650 | 5473 ft | 269 kts | 271° |
| 2026-05-09 12:27 | 54.97630 | 83.98394 | 5060 ft | 271 kts | 271° |
| 2026-05-09 12:28 | 54.97782 | 83.95152 | 4864 ft | 266 kts | 271° |
| 2026-05-09 12:28 | 54.97934 | 83.91938 | 4787 ft | 266 kts | 271° |
| 2026-05-09 12:28 | 54.98033 | 83.89809 | 4756 ft | 268 kts | 271° |
| 2026-05-09 12:28 | 54.98180 | 83.86578 | 4732 ft | 267 kts | 271° |
| 2026-05-09 12:29 | 54.98328 | 83.83372 | 4722 ft | 264 kts | 271° |
| 2026-05-09 12:29 | 54.98473 | 83.80165 | 4726 ft | 268 kts | 271° |
| 2026-05-09 12:29 | 54.98618 | 83.76941 | 4725 ft | 266 kts | 271° |
| 2026-05-09 12:29 | 54.98807 | 83.72853 | 4721 ft | 263 kts | 271° |
| 2026-05-09 12:30 | 54.98903 | 83.70652 | 4720 ft | 270 kts | 271° |
| 2026-05-09 12:30 | 54.99045 | 83.67463 | 4716 ft | 268 kts | 271° |
| 2026-05-09 12:30 | 54.99328 | 83.61025 | 4714 ft | 264 kts | 271° |
| 2026-05-09 12:31 | 54.99468 | 83.57805 | 4719 ft | 267 kts | 271° |
| 2026-05-09 12:31 | 54.99745 | 83.51399 | 4715 ft | 264 kts | 271° |
| 2026-05-09 12:31 | 54.99883 | 83.48215 | 4717 ft | 264 kts | 271° |
| 2026-05-09 12:32 | 55.00016 | 83.45037 | 4716 ft | 262 kts | 271° |
| 2026-05-09 12:32 | 55.00149 | 83.41857 | 4716 ft | 263 kts | 271° |
| 2026-05-09 12:32 | 55.00266 | 83.39126 | 4717 ft | 264 kts | 271° |
| 2026-05-09 12:32 | 55.00398 | 83.35981 | 4720 ft | 262 kts | 271° |
| 2026-05-09 12:33 | 55.00529 | 83.32836 | 4724 ft | 260 kts | 271° |
| 2026-05-09 12:33 | 55.00663 | 83.29636 | 4716 ft | 262 kts | 271° |
| 2026-05-09 12:33 | 55.00791 | 83.26490 | 4626 ft | 262 kts | 271° |
| 2026-05-09 12:33 | 55.00923 | 83.23327 | 4198 ft | 261 kts | 270° |
| 2026-05-09 12:34 | 55.01055 | 83.20207 | 3822 ft | 251 kts | 270° |
| 2026-05-09 12:34 | 55.01183 | 83.17274 | 3689 ft | 228 kts | 270° |
| 2026-05-09 12:34 | 55.01301 | 83.14717 | 3706 ft | 198 kts | 269° |
| 2026-05-09 12:34 | 55.01404 | 83.12493 | 3701 ft | 170 kts | 268° |
| 2026-05-09 12:35 | 55.01484 | 83.10451 | 3517 ft | 182 kts | 266° |
| 2026-05-09 12:35 | 55.01481 | 83.07941 | 3520 ft | 223 kts | 264° |
| 2026-05-09 12:35 | 55.01525 | 83.05227 | 3707 ft | 217 kts | 268° |
| 2026-05-09 12:35 | 55.01627 | 83.02944 | 3816 ft | 179 kts | 269° |
| 2026-05-09 12:36 | 55.01697 | 83.00858 | 3836 ft | 177 kts | 266° |
| 2026-05-09 12:36 | 55.01548 | 82.98851 | 4006 ft | 158 kts | 243° |
| 2026-05-09 12:36 | 55.01129 | 82.97096 | 4164 ft | 161 kts | 246° |
| 2026-05-09 12:36 | 55.00785 | 82.95205 | 4218 ft | 171 kts | 249° |
| 2026-05-09 12:37 | 55.00489 | 82.93247 | 3806 ft | 170 kts | 251° |
| 2026-05-09 12:37 | 55.00453 | 82.90986 | 3519 ft | 195 kts | 279° |
| 2026-05-09 12:37 | 55.00928 | 82.88686 | 3212 ft | 212 kts | 286° |
| 2026-05-09 12:37 | 55.01503 | 82.86255 | 2826 ft | 204 kts | 288° |
| 2026-05-09 12:38 | 55.01969 | 82.84160 | 2488 ft | 168 kts | 280° |
| 2026-05-09 12:38 | 55.02209 | 82.82230 | 2104 ft | 163 kts | 273° |
| 2026-05-09 12:38 | 55.02312 | 82.80264 | 1783 ft | 166 kts | 266° |
| 2026-05-09 12:38 | 55.02310 | 82.78184 | 1650 ft | 160 kts | 263° |
| 2026-05-09 12:39 | 55.02218 | 82.76262 | 1481 ft | 157 kts | 259° |
| 2026-05-09 12:39 | 55.02069 | 82.74368 | 1298 ft | 159 kts | 257° |
| 2026-05-09 12:39 | 55.01917 | 82.72608 | 1063 ft | 159 kts | 257° |
| 2026-05-09 12:39 | 55.01749 | 82.70668 | 729 ft | 160 kts | 261° |
| 2026-05-09 12:40 | 55.01577 | 82.68768 | 519 ft | 159 kts | 261° |
| 2026-05-09 12:40 | 55.01407 | 82.66901 | 390 ft | 157 kts | 260° |
| 2026-05-09 12:40 | 55.01236 | 82.65056 | 372 ft | 131 kts | 262° |
| 2026-05-09 12:40 | 55.01149 | 82.64076 | 374 ft | 25 kts | 249° |
| 2026-05-09 12:41 | 55.01023 | 82.64014 | 374 ft | 30 kts | 155° |
| 2026-05-09 12:41 | 55.00980 | 82.64203 | 373 ft | 37 kts | 103° |
| 2026-05-09 12:41 | 55.00921 | 82.64633 | 373 ft | 34 kts | 102° |
| 2026-05-09 12:41 | 55.00875 | 82.64988 | 373 ft | 17 kts | 98° |
| 2026-05-09 12:42 | 55.00879 | 82.65151 | 373 ft | 36 kts | 84° |
| 2026-05-09 12:42 | 55.00907 | 82.65558 | 373 ft | 31 kts | 81° |
| 2026-05-09 12:42 | 55.00938 | 82.65892 | 373 ft | 25 kts | 81° |
| 2026-05-09 12:42 | 55.00963 | 82.66158 | 373 ft | 20 kts | 81° |
| 2026-05-09 12:43 | 55.01018 | 82.66355 | 373 ft | 19 kts | 60° |
| 2026-05-09 12:43 | 55.01055 | 82.66533 | 373 ft | 13 kts | 70° |
| 2026-05-09 12:43 | 55.01091 | 82.66697 | 373 ft | 16 kts | 71° |
| 2026-05-09 12:43 | 55.01092 | 82.66848 | 373 ft | 5 kts | 106° |
| 2026-05-09 12:44 | 55.01081 | 82.66969 | 373 ft | 21 kts | 81° |
| 2026-05-09 12:44 | 55.01070 | 82.67035 | 373 ft | 4 kts | 162° |
| 2026-05-09 12:44 | 55.01024 | 82.67051 | 373 ft | 0 kts | 172° |